Balao — V7AR9 — position and weather

sailwx.info

Track history (hours):
 
Tides and Currents Weather Stations Pressure Air Temp Water Temp Dewpoint Dewpoint Depression Visibility Wind Speed Wind Dir Waves Ship Positions

Balao

Last reported at 2018-Feb-23 20:13 UTC. Time now 2018-Feb-25 21:53 UTC.
Position S 38°43' E 149°24'.

Length 208 m; draft 11.5 m.

Type: Ship (hazmat cat A). MMSI: 538005057.

Date/timePositionNaut miles runAvg speedWind from/ knotsBaromVisibWave heightAir tempDewpointWater temp
2018-Feb-23 20:13S 38°43' E 149°24'417.7
2018-Feb-23 20:00S 38°44' E 149°19'917.4
2018-Feb-23 19:29S 38°46' E 149°08'4217.5
2018-Feb-23 17:05S 38°53' E 148°14'116.9
2018-Feb-23 17:00S 38°53' E 148°13'916.6
2018-Feb-23 16:28S 38°54' E 148°02'816.6
2018-Feb-23 16:00S 38°56' E 147°52'816.7
2018-Feb-23 15:30S 38°58' E 147°41'816.8
2018-Feb-23 15:00S 39°00' E 147°31'817.2
2018-Feb-23 14:30S 39°03' E 147°20'917.4
2018-Feb-23 14:00S 39°05' E 147°10'917.5
2018-Feb-23 13:30S 39°08' E 146°59'917.8
2018-Feb-23 13:00S 39°12' E 146°49'918.0
2018-Feb-23 12:30S 39°16' E 146°38'917.6
2018-Feb-23 12:00S 39°17' E 146°27'1217.5
2018-Feb-23 11:20S 39°17' E 146°11'617.4
2018-Feb-23 11:00S 39°17' E 146°04'917.2
2018-Feb-23 10:30S 39°18' E 145°53'917.3
2018-Feb-23 09:59S 39°18' E 145°41'40216.2
2018-Feb-22 09:11S 35°58' E 138°21'317.3
2018-Feb-22 09:00S 35°56' E 138°19'69 1.9
2018-Feb-20 21:36S 34°47' E 138°28'2 9.7
2018-Feb-20 21:26S 34°47' E 138°26'4 9.8
2018-Feb-20 21:00S 34°48' E 138°21'3 0.3
2018-Feb-20 12:40S 34°50' E 138°18'0 0.0
2018-Feb-20 07:01S 34°50' E 138°19'0 0.0
2018-Feb-20 06:58S 34°50' E 138°19'0 0.0
2018-Feb-20 05:07S 34°50' E 138°19'0 0.1
2018-Feb-20 04:55S 34°50' E 138°19'34 4.6
2018-Feb-19 21:32S 35°23' E 138°07'016.2
2018-Feb-19 21:30S 35°23' E 138°07'36313.5
2018-Feb-18 18:36S 38°02' E 144°55'515.7
2018-Feb-18 18:19S 37°58' E 144°55'512.5
2018-Feb-18 17:53S 37°52' E 144°56'3 0.2
2018-Feb-17 20:57S 37°49' E 144°55'1 2.5
2018-Feb-17 20:26S 37°50' E 144°54'4 8.3
2018-Feb-17 19:58S 37°54' E 144°56'714.3
2018-Feb-17 19:30S 38°00' E 144°55'176 4.6
2018-Feb-16 05:03S 38°29' E 148°37'213.0
2018-Feb-16 04:55S 38°28' E 148°38'613.1
2018-Feb-16 04:28S 38°25' E 148°44'613.3
2018-Feb-16 03:59S 38°21' E 148°51'613.3
2018-Feb-16 03:30S 38°17' E 148°58'18112.3
2018-Feb-15 12:45S 35°38' E 150°47'413.8
2018-Feb-15 12:30S 35°35' E 150°48'  
Track history (hours):
 
Tides and Currents Weather Stations Pressure Air Temp Water Temp Dewpoint Dewpoint Depression Visibility Wind Speed Wind Dir Waves Ship Positions

Balao

Last reported at 2018-Feb-23 20:13 UTC. Time now 2018-Feb-25 21:53 UTC.
Position S 38°43' E 149°24'.

Length 208 m; draft 11.5 m.

Type: Ship (hazmat cat A). MMSI: 538005057.

Date/timePositionNaut miles runAvg speedWind from/ knotsBaromVisibWave heightAir tempDewpointWater temp
2018-Feb-23 20:13S 38°43' E 149°24'417.7
2018-Feb-23 20:00S 38°44' E 149°19'917.4
2018-Feb-23 19:29S 38°46' E 149°08'4217.5
2018-Feb-23 17:05S 38°53' E 148°14'116.9
2018-Feb-23 17:00S 38°53' E 148°13'916.6
2018-Feb-23 16:28S 38°54' E 148°02'816.6
2018-Feb-23 16:00S 38°56' E 147°52'816.7
2018-Feb-23 15:30S 38°58' E 147°41'816.8
2018-Feb-23 15:00S 39°00' E 147°31'817.2
2018-Feb-23 14:30S 39°03' E 147°20'917.4
2018-Feb-23 14:00S 39°05' E 147°10'917.5
2018-Feb-23 13:30S 39°08' E 146°59'917.8
2018-Feb-23 13:00S 39°12' E 146°49'918.0
2018-Feb-23 12:30S 39°16' E 146°38'917.6
2018-Feb-23 12:00S 39°17' E 146°27'1217.5
2018-Feb-23 11:20S 39°17' E 146°11'617.4
2018-Feb-23 11:00S 39°17' E 146°04'917.2
2018-Feb-23 10:30S 39°18' E 145°53'917.3
2018-Feb-23 09:59S 39°18' E 145°41'40216.2
2018-Feb-22 09:11S 35°58' E 138°21'317.3
2018-Feb-22 09:00S 35°56' E 138°19'69 1.9
2018-Feb-20 21:36S 34°47' E 138°28'2 9.7
2018-Feb-20 21:26S 34°47' E 138°26'4 9.8
2018-Feb-20 21:00S 34°48' E 138°21'3 0.3
2018-Feb-20 12:40S 34°50' E 138°18'0 0.0
2018-Feb-20 07:01S 34°50' E 138°19'0 0.0
2018-Feb-20 06:58S 34°50' E 138°19'0 0.0
2018-Feb-20 05:07S 34°50' E 138°19'0 0.1
2018-Feb-20 04:55S 34°50' E 138°19'34 4.6
2018-Feb-19 21:32S 35°23' E 138°07'016.2
2018-Feb-19 21:30S 35°23' E 138°07'36313.5
2018-Feb-18 18:36S 38°02' E 144°55'515.7
2018-Feb-18 18:19S 37°58' E 144°55'512.5
2018-Feb-18 17:53S 37°52' E 144°56'3 0.2
2018-Feb-17 20:57S 37°49' E 144°55'1 2.5
2018-Feb-17 20:26S 37°50' E 144°54'4 8.3
2018-Feb-17 19:58S 37°54' E 144°56'714.3
2018-Feb-17 19:30S 38°00' E 144°55'176 4.6
2018-Feb-16 05:03S 38°29' E 148°37'213.0
2018-Feb-16 04:55S 38°28' E 148°38'613.1
2018-Feb-16 04:28S 38°25' E 148°44'613.3
2018-Feb-16 03:59S 38°21' E 148°51'613.3
2018-Feb-16 03:30S 38°17' E 148°58'18112.3
2018-Feb-15 12:45S 35°38' E 150°47'413.8
2018-Feb-15 12:30S 35°35' E 150°48'  

Dump ship's entire track history